Time;durP1;ratioP1;P1;durP2;ratioP2;P2;SDS_P1;SDS_P2;PMS_P1;PMS_P2;Temp;Humidity;BMP_temperature;BMP_pressure;BME280_temperature;BME280_humidity;BME280_pressure;Samples;Min_cycle;Max_cycle;Signal;HPM_P1;HPM_P2
2024/04/24 00:00:03;;;;;;;8.32;5.78;;;;;;;3.36;72.49;100074.63;2707947;26;20051;-78
2024/04/24 00:01:17;;;;;;;7.55;6.05;;;;;;;3.36;72.34;100082.34;2711233;26;20495;-79
2024/04/24 00:02:30;;;;;;;8.38;5.72;;;;;;;3.37;72.10;100086.66;2712148;26;20015;-79
2024/04/24 00:03:43;;;;;;;6.30;4.93;;;;;;;3.37;72.11;100079.78;2711042;26;21971;-79
2024/04/24 00:05:01;;;;;;;7.40;6.55;;;;;;;3.37;71.94;100077.19;2721327;26;20011;-78
2024/04/24 00:06:15;;;;;;;9.60;5.30;;;;;;;3.37;71.78;100074.63;2719592;26;19996;-77
2024/04/24 00:07:28;;;;;;;8.80;5.75;;;;;;;3.38;71.33;100075.47;2708096;26;20166;-77
2024/04/24 00:08:42;;;;;;;5.90;5.40;;;;;;;3.36;71.50;100074.63;2719413;26;19999;-77
2024/04/24 00:09:55;;;;;;;5.68;4.95;;;;;;;3.34;71.08;100074.59;2719496;26;20448;-78
2024/04/24 00:11:08;;;;;;;7.28;5.13;;;;;;;3.34;71.26;100073.72;2720780;26;20014;-77
2024/04/24 00:12:21;;;;;;;6.53;5.88;;;;;;;3.31;71.15;100064.25;2723582;26;20026;-77
2024/04/24 00:13:35;;;;;;;6.45;5.20;;;;;;;3.32;71.18;100057.38;2739758;26;20071;-77
2024/04/24 00:14:48;;;;;;;7.47;4.45;;;;;;;3.33;71.24;100069.41;2733306;26;20105;-78
2024/04/24 00:16:01;;;;;;;6.80;6.20;;;;;;;3.33;70.90;100062.56;2702051;26;20011;-78
2024/04/24 00:17:14;;;;;;;6.93;5.30;;;;;;;3.35;70.98;100071.16;2694431;26;20000;-77
2024/04/24 00:18:28;;;;;;;6.47;5.55;;;;;;;3.35;71.12;100063.41;2717082;26;20011;-78
2024/04/24 00:19:41;;;;;;;6.43;5.32;;;;;;;3.38;71.05;100065.16;2719524;26;20496;-78
2024/04/24 00:20:55;;;;;;;5.93;5.43;;;;;;;3.41;70.70;100070.38;2707184;26;20089;-78
2024/04/24 00:22:08;;;;;;;7.53;6.15;;;;;;;3.41;70.51;100060.06;2709108;26;20014;-77
2024/04/24 00:23:21;;;;;;;5.75;5.25;;;;;;;3.43;70.50;100060.91;2720181;26;20390;-78
2024/04/24 00:24:35;;;;;;;10.90;6.70;;;;;;;3.46;70.31;100059.25;2739430;26;20007;-77
2024/04/24 00:25:48;;;;;;;6.43;5.78;;;;;;;3.48;70.51;100067.00;2721053;26;20000;-77
2024/04/24 00:27:01;;;;;;;6.55;5.85;;;;;;;3.53;70.68;100059.31;2721180;26;20452;-78
2024/04/24 00:28:14;;;;;;;9.82;6.65;;;;;;;3.54;70.49;100050.72;2721399;26;20039;-78
2024/04/24 00:29:28;;;;;;;4.95;4.55;;;;;;;3.54;70.52;100055.88;2707605;26;20036;-78
2024/04/24 00:30:41;;;;;;;6.25;5.57;;;;;;;3.56;70.37;100054.19;2708587;26;20102;-79
2024/04/24 00:31:54;;;;;;;5.32;4.82;;;;;;;3.56;70.53;100052.44;2707536;26;20465;-79
2024/04/24 00:33:09;;;;;;;8.80;6.43;;;;;;;3.56;70.90;100043.84;2721061;26;20448;-78
2024/04/24 00:34:22;;;;;;;7.35;6.15;;;;;;;3.52;71.08;100042.97;2723490;26;20002;-78
2024/04/24 00:35:36;;;;;;;9.80;5.72;;;;;;;3.50;70.70;100040.38;2725148;26;20356;-78
2024/04/24 00:36:49;;;;;;;6.18;4.95;;;;;;;3.46;71.13;100043.78;2722423;26;20484;-77
2024/04/24 00:38:02;;;;;;;7.80;5.75;;;;;;;3.40;71.18;100048.84;2711188;26;20488;-78
2024/04/24 00:39:15;;;;;;;9.13;5.65;;;;;;;3.37;71.28;100051.41;2712588;26;20047;-78
2024/04/24 00:40:29;;;;;;;12.35;6.13;;;;;;;3.33;71.46;100046.19;2723884;26;20014;-79
2024/04/24 00:41:42;;;;;;;6.57;6.00;;;;;;;3.30;71.62;100038.44;2724439;26;20026;-79
2024/04/24 00:42:55;;;;;;;5.60;4.88;;;;;;;3.27;71.51;100041.84;2695175;26;20460;-79
2024/04/24 00:44:08;;;;;;;5.60;5.13;;;;;;;3.25;71.58;100033.22;2712265;26;20348;-77
2024/04/24 00:45:21;;;;;;;6.22;5.32;;;;;;;3.25;71.78;100039.25;2723750;26;20448;-78
2024/04/24 00:46:36;;;;;;;8.32;5.85;;;;;;;3.23;71.64;100035.78;2725210;26;19992;-78
2024/04/24 00:47:50;;;;;;;6.15;5.55;;;;;;;3.22;71.19;100028.88;2723983;26;20010;-77
2024/04/24 00:49:03;;;;;;;6.07;5.45;;;;;;;3.21;71.48;100026.31;2724170;26;19995;-77
2024/04/24 00:50:17;;;;;;;6.82;6.15;;;;;;;3.19;71.57;100028.00;2706205;26;20000;-77
2024/04/24 00:51:32;;;;;;;6.88;6.13;;;;;;;3.17;72.13;100016.78;2701420;26;20341;-77
2024/04/24 00:52:45;;;;;;;5.63;5.10;;;;;;;3.16;71.94;100023.66;2694547;26;20000;-77
2024/04/24 00:53:58;;;;;;;6.25;5.65;;;;;;;3.14;72.45;100014.19;2699027;26;20424;-77
2024/04/24 00:55:12;;;;;;;7.65;5.20;;;;;;;3.12;72.46;100015.88;2711730;26;20057;-77
2024/04/24 00:56:25;;;;;;;12.07;6.75;;;;;;;3.11;72.36;100014.16;2712364;26;19996;-79
2024/04/24 00:57:38;;;;;;;6.38;5.82;;;;;;;3.09;72.47;100011.56;2712520;26;20007;-77
2024/04/24 00:58:52;;;;;;;7.60;6.13;;;;;;;3.08;72.62;100012.41;2712758;26;19995;-76
2024/04/24 01:00:06;;;;;;;5.93;5.40;;;;;;;3.06;72.55;100006.38;2711621;26;19996;-76
2024/04/24 01:01:19;;;;;;;7.35;6.53;;;;;;;3.05;72.78;100018.41;2695032;26;20066;-78
2024/04/24 01:02:33;;;;;;;8.73;5.72;;;;;;;2.99;72.88;100010.56;2694894;26;20137;-78
2024/04/24 01:03:46;;;;;;;6.75;5.95;;;;;;;2.94;72.54;100007.06;2722197;26;20023;-78
2024/04/24 01:04:59;;;;;;;6.13;5.32;;;;;;;2.89;72.64;100013.91;2724842;26;19999;-78
2024/04/24 01:06:13;;;;;;;6.03;5.45;;;;;;;2.86;73.10;100013.00;2724202;26;20007;-78
2024/04/24 01:07:26;;;;;;;6.45;5.82;;;;;;;2.83;72.89;100013.81;2724516;26;20337;-78
2024/04/24 01:08:39;;;;;;;10.05;7.38;;;;;;;2.81;73.10;100003.50;2723841;26;20318;-78
2024/04/24 01:09:52;;;;;;;6.22;5.63;;;;;;;2.82;73.39;100012.97;2712296;26;20006;-77
2024/04/24 01:11:06;;;;;;;8.20;5.35;;;;;;;2.85;73.14;100009.56;2724758;26;20404;-78
2024/04/24 01:12:19;;;;;;;8.32;6.10;;;;;;;2.86;73.24;100013.00;2724751;26;20099;-77
2024/04/24 01:13:32;;;;;;;8.52;6.07;;;;;;;2.83;73.18;100006.09;2724067;26;20000;-77
2024/04/24 01:14:45;;;;;;;7.63;6.93;;;;;;;2.81;73.26;100007.78;2711291;26;19999;-78
2024/04/24 01:16:14;;;;;;;7.45;5.15;;;;;;;2.78;73.45;100005.16;2712094;26;20015;-77
2024/04/24 01:17:28;;;;;;;6.45;5.18;;;;;;;2.76;73.77;100006.84;2698450;26;19992;-78
2024/04/24 01:18:48;;;;;;;6.10;5.55;;;;;;;2.74;73.90;100004.28;2694952;26;20334;-77
2024/04/24 01:20:02;;;;;;;6.80;6.15;;;;;;;2.70;74.05;100009.34;2700300;26;20036;-78
2024/04/24 01:21:16;;;;;;;6.10;5.50;;;;;;;2.66;73.86;100005.91;2712241;26;20059;-77
2024/04/24 01:22:29;;;;;;;6.97;6.38;;;;;;;2.64;73.95;100001.56;2712501;26;20448;-77
2024/04/24 01:23:49;;;;;;;6.18;5.63;;;;;;;2.60;74.08;100006.66;2724405;26;20032;-78
2024/04/24 01:25:11;;;;;;;6.78;6.13;;;;;;;2.57;74.11;100006.63;2723568;26;20018;-77
2024/04/24 01:26:40;;;;;;;10.40;5.72;;;;;;;2.52;74.01;100005.69;2715090;26;20007;-79
2024/04/24 01:27:53;;;;;;;8.63;6.03;;;;;;;2.50;73.78;99999.66;2716424;26;20000;-77
2024/04/24 01:29:06;;;;;;;6.93;6.28;;;;;;;2.48;74.34;100003.03;2711921;26;20480;-77
2024/04/24 01:30:20;;;;;;;7.13;5.72;;;;;;;2.43;73.96;99995.28;2723798;26;20076;-77
2024/04/24 01:31:33;;;;;;;6.90;5.50;;;;;;;2.38;74.01;99999.50;2724022;26;20010;-77
2024/04/24 01:32:46;;;;;;;6.80;6.15;;;;;;;2.33;74.12;99996.84;2711924;26;19999;-77
2024/04/24 01:33:59;;;;;;;10.07;6.97;;;;;;;2.30;74.47;99993.38;2724096;26;19996;-77
2024/04/24 01:35:13;;;;;;;7.55;6.78;;;;;;;2.27;74.62;99998.47;2705853;26;20019;-78
2024/04/24 01:36:26;;;;;;;6.43;5.72;;;;;;;2.28;74.71;99995.91;2712221;26;20073;-77
2024/04/24 01:37:39;;;;;;;8.82;5.25;;;;;;;2.27;74.54;99990.75;2723946;26;20467;-77
2024/04/24 01:38:52;;;;;;;6.10;5.22;;;;;;;2.29;74.60;99989.06;2724345;26;20004;-78
2024/04/24 01:40:06;;;;;;;5.78;5.28;;;;;;;2.28;74.59;99995.06;2724170;26;20003;-78
2024/04/24 01:41:20;;;;;;;6.60;6.00;;;;;;;2.27;74.95;99993.31;2724922;26;20448;-78
2024/04/24 01:42:33;;;;;;;6.28;5.63;;;;;;;2.28;74.52;99992.50;2724023;26;20031;-78
2024/04/24 01:43:46;;;;;;;9.48;5.75;;;;;;;2.29;74.50;99986.47;2712399;26;20108;-79
2024/04/24 01:44:59;;;;;;;6.47;5.80;;;;;;;2.27;74.53;99990.75;2693959;26;20000;-78
2024/04/24 01:46:13;;;;;;;7.57;5.93;;;;;;;2.27;74.66;99991.63;2712755;26;20003;-78
2024/04/24 01:47:26;;;;;;;9.10;6.40;;;;;;;2.29;74.90;99991.63;2723927;26;20007;-78
2024/04/24 01:48:39;;;;;;;6.57;6.05;;;;;;;2.31;74.82;99997.69;2724152;26;20331;-78
2024/04/24 01:49:52;;;;;;;6.32;5.72;;;;;;;2.31;74.86;99992.53;2724514;26;20371;-78
2024/04/24 01:51:05;;;;;;;7.28;6.13;;;;;;;2.29;74.72;99992.50;2724018;26;20341;-78
2024/04/24 01:52:19;;;;;;;6.25;5.00;;;;;;;2.31;75.06;99992.53;2711738;26;20368;-78
2024/04/24 01:53:32;;;;;;;7.65;6.35;;;;;;;2.31;74.96;99992.53;2723650;26;20014;-78
2024/04/24 01:54:45;;;;;;;6.05;5.45;;;;;;;2.34;75.00;99990.84;2724043;26;20078;-78
2024/04/24 01:55:58;;;;;;;7.53;5.50;;;;;;;2.35;75.15;99989.13;2724036;26;20102;-78
2024/04/24 01:57:12;;;;;;;6.47;5.50;;;;;;;2.38;75.03;99986.63;2724749;26;20000;-78
2024/04/24 01:58:25;;;;;;;6.57;5.43;;;;;;;2.39;74.93;99981.47;2723972;26;20015;-79
2024/04/24 01:59:38;;;;;;;6.45;5.60;;;;;;;2.41;75.11;99986.66;2713336;26;20051;-80
2024/04/24 02:00:52;;;;;;;6.60;6.00;;;;;;;2.42;74.90;99985.81;2725572;26;20339;-80
2024/04/24 02:02:05;;;;;;;7.82;6.22;;;;;;;2.44;75.15;99984.13;2726000;26;20003;-79
2024/04/24 02:03:18;;;;;;;8.77;5.80;;;;;;;2.46;75.07;99987.59;2714695;26;20015;-80
2024/04/24 02:04:31;;;;;;;5.95;5.40;;;;;;;2.46;75.01;99976.44;2725728;26;20437;-79
2024/04/24 02:05:45;;;;;;;7.50;5.57;;;;;;;2.48;74.70;99985.00;2725361;26;20557;-79
2024/04/24 02:06:58;;;;;;;8.00;4.90;;;;;;;2.50;74.94;99979.03;2695632;26;20004;-80
2024/04/24 02:08:11;;;;;;;5.82;5.32;;;;;;;2.54;74.52;99974.81;2713438;26;20536;-80
2024/04/24 02:09:24;;;;;;;6.07;5.50;;;;;;;2.57;74.75;99980.84;2725149;26;20089;-82
2024/04/24 02:10:38;;;;;;;7.25;6.13;;;;;;;2.59;74.50;99975.75;2714037;26;20011;-80
2024/04/24 02:11:51;;;;;;;5.70;5.00;;;;;;;2.62;74.16;99975.78;2725701;26;20000;-80
2024/04/24 02:13:04;;;;;;;6.25;4.97;;;;;;;2.64;74.33;99971.50;2725687;26;20004;-79
2024/04/24 02:14:17;;;;;;;7.97;5.63;;;;;;;2.67;74.16;99970.69;2725646;26;20010;-81
2024/04/24 02:15:31;;;;;;;5.68;5.07;;;;;;;2.70;73.86;99973.28;2725606;26;20003;-80
2024/04/24 02:16:44;;;;;;;8.73;5.57;;;;;;;2.71;73.22;99968.16;2724229;26;19996;-80
2024/04/24 02:18:07;;;;;;;6.35;5.85;;;;;;;2.73;73.16;99966.44;2725216;26;20022;-81
2024/04/24 02:19:20;;;;;;;;;;;;;;;2.73;73.21;99974.19;2726325;26;19996;-82
2024/04/24 02:20:34;;;;;;;6.25;5.22;;;;;;;2.69;72.82;99971.56;2724191;26;19949;-79
2024/04/24 02:21:48;;;;;;;8.95;5.50;;;;;;;2.67;72.69;99965.53;2724257;26;20010;-81
2024/04/24 02:23:05;;;;;;;9.32;5.85;;;;;;;2.64;72.40;99971.50;2723740;26;20061;-80
2024/04/24 02:25:50;;;;;;;6.00;5.50;;;;;;;2.60;72.10;99978.31;2724282;26;20068;-78
2024/04/24 02:27:04;;;;;;;6.20;5.40;;;;;;;2.58;72.35;99976.56;2725248;26;20072;-79
2024/04/24 02:28:17;;;;;;;5.97;5.30;;;;;;;2.55;72.44;99982.53;2724591;26;23090;-80
2024/04/24 02:29:30;;;;;;;5.93;5.35;;;;;;;2.52;72.26;99973.91;2712452;26;20129;-79
2024/04/24 02:30:44;;;;;;;7.15;6.45;;;;;;;2.50;72.41;99973.03;2725705;26;20069;-80
2024/04/24 02:31:57;;;;;;;6.85;5.90;;;;;;;2.46;72.41;99966.13;2726386;26;19995;-79
2024/04/24 02:33:10;;;;;;;8.65;5.28;;;;;;;2.44;72.11;99958.38;2725794;26;20365;-79
2024/04/24 02:34:23;;;;;;;7.25;6.57;;;;;;;2.45;72.08;99966.94;2725319;26;20736;-81
2024/04/24 02:35:37;;;;;;;7.53;6.18;;;;;;;2.42;72.20;99967.78;2713135;26;20045;-79
2024/04/24 02:36:50;;;;;;;6.82;6.20;;;;;;;2.41;72.31;99955.75;2723985;26;20375;-79
2024/04/24 02:38:03;;;;;;;5.93;5.43;;;;;;;2.39;72.15;99960.00;2724294;26;20441;-79
2024/04/24 02:39:16;;;;;;;6.47;5.47;;;;;;;2.37;71.83;99959.13;2712885;26;20437;-79
2024/04/24 02:40:30;;;;;;;6.10;5.45;;;;;;;2.35;72.26;99956.53;2712019;26;20010;-80
2024/04/24 02:41:43;;;;;;;6.05;5.55;;;;;;;2.34;72.21;99957.38;2712783;26;20000;-79
2024/04/24 02:42:56;;;;;;;6.18;5.68;;;;;;;2.31;71.83;99961.63;2725815;26;20010;-79
2024/04/24 02:44:09;;;;;;;6.30;5.63;;;;;;;2.28;72.02;99961.59;2726371;26;20014;-79
2024/04/24 02:45:22;;;;;;;6.35;5.60;;;;;;;2.26;72.02;99955.53;2725717;26;19999;-80
2024/04/24 02:46:36;;;;;;;7.88;5.10;;;;;;;2.23;71.89;99958.94;2725715;26;20076;-80
2024/04/24 02:47:49;;;;;;;8.32;6.30;;;;;;;2.19;72.13;99949.44;2713939;26;20054;-80
2024/04/24 02:49:02;;;;;;;10.45;6.70;;;;;;;2.18;72.19;99953.72;2725834;26;20476;-79
2024/04/24 02:50:15;;;;;;;6.30;5.80;;;;;;;2.18;72.13;99961.44;2725907;26;20398;-79
2024/04/24 02:51:29;;;;;;;7.28;5.80;;;;;;;2.17;72.12;99946.84;2714727;26;20459;-79
2024/04/24 02:52:42;;;;;;;7.90;7.10;;;;;;;2.16;71.96;99951.97;2725821;26;20420;-81
2024/04/24 02:53:55;;;;;;;9.05;5.97;;;;;;;2.15;72.25;99945.97;2726999;26;20473;-79
2024/04/24 02:55:08;;;;;;;10.05;5.78;;;;;;;2.13;71.86;99945.06;2727440;26;20010;-79
2024/04/24 02:56:21;;;;;;;5.50;4.97;;;;;;;2.10;72.38;99947.59;2726443;26;20010;-79
2024/04/24 02:57:35;;;;;;;6.72;6.03;;;;;;;2.08;72.16;99946.72;2725561;26;19999;-79
2024/04/24 02:58:48;;;;;;;7.53;6.60;;;;;;;2.09;71.93;99951.03;2713682;26;20007;-80
2024/04/24 03:00:01;;;;;;;7.22;6.53;;;;;;;2.07;72.07;99936.41;2725540;26;20045;-79
2024/04/24 03:01:15;;;;;;;6.75;5.63;;;;;;;2.06;72.14;99945.81;2726406;26;20473;-79
2024/04/24 03:02:28;;;;;;;6.95;6.25;;;;;;;2.03;72.16;99939.78;2725645;26;20032;-80
2024/04/24 03:03:41;;;;;;;6.82;5.65;;;;;;;2.02;72.39;99930.34;2725574;26;20018;-79
2024/04/24 03:04:55;;;;;;;7.60;6.90;;;;;;;2.00;72.27;99935.44;2724122;26;20373;-80
2024/04/24 03:06:08;;;;;;;7.30;6.68;;;;;;;1.97;72.50;99930.25;2714337;26;20367;-79
2024/04/24 03:07:21;;;;;;;6.82;5.65;;;;;;;1.95;72.03;99927.66;2726356;26;20078;-79
2024/04/24 03:08:34;;;;;;;9.30;7.38;;;;;;;1.96;72.58;99928.50;2725479;26;19999;-80
2024/04/24 03:09:48;;;;;;;8.27;6.32;;;;;;;1.96;72.45;99925.94;2726263;26;20003;-79
2024/04/24 03:11:01;;;;;;;7.20;6.35;;;;;;;1.96;72.38;99926.84;2726327;26;20337;-79
2024/04/24 03:12:15;;;;;;;9.13;5.80;;;;;;;1.95;72.66;99929.38;2725828;26;20334;-79
2024/04/24 03:13:28;;;;;;;7.35;5.43;;;;;;;1.94;72.48;99925.09;2714741;26;19999;-79
2024/04/24 03:14:42;;;;;;;7.85;6.85;;;;;;;1.93;72.11;99918.19;2727247;26;20072;-79
2024/04/24 03:15:55;;;;;;;7.47;6.88;;;;;;;1.93;72.50;99913.03;2716356;26;19996;-78
2024/04/24 03:17:08;;;;;;;5.75;5.22;;;;;;;1.92;72.54;99919.03;2731588;26;20495;-78
2024/04/24 03:18:21;;;;;;;6.13;5.45;;;;;;;1.91;72.52;99925.00;2725917;26;20003;-78
2024/04/24 03:19:36;;;;;;;7.18;6.45;;;;;;;1.90;72.64;99918.16;2726188;26;20013;-79
2024/04/24 03:20:50;;;;;;;5.88;5.25;;;;;;;1.88;72.48;99914.69;2726247;26;20011;-79
2024/04/24 03:22:03;;;;;;;6.00;5.50;;;;;;;1.88;72.65;99912.09;2725516;26;20010;-79
2024/04/24 03:23:16;;;;;;;8.30;6.22;;;;;;;1.86;72.34;99922.38;2713421;26;20011;-79
2024/04/24 03:24:31;;;;;;;7.78;6.72;;;;;;;1.85;72.35;99909.50;2722401;26;19998;-78
2024/04/24 03:25:45;;;;;;;9.10;6.80;;;;;;;1.83;72.34;99913.75;2730496;26;20504;-79
2024/04/24 03:26:58;;;;;;;6.50;5.90;;;;;;;1.82;72.69;99914.59;2726333;26;20025;-79
2024/04/24 03:28:11;;;;;;;10.23;6.93;;;;;;;1.81;72.60;99912.84;2727941;26;20007;-79
2024/04/24 03:29:24;;;;;;;7.88;7.15;;;;;;;1.80;72.65;99914.56;2725909;26;20046;-81
2024/04/24 03:30:38;;;;;;;13.27;6.20;;;;;;;1.81;72.97;99910.28;2715953;26;20496;-78
2024/04/24 03:31:51;;;;;;;9.07;6.97;;;;;;;1.81;73.06;99905.13;2728431;26;20080;-80
2024/04/24 03:33:04;;;;;;;7.32;6.20;;;;;;;1.81;72.88;99910.28;2727895;26;20043;-79
2024/04/24 03:34:17;;;;;;;17.58;6.60;;;;;;;1.80;72.75;99911.13;2725530;26;19995;-79
2024/04/24 03:35:31;;;;;;;6.20;5.60;;;;;;;1.77;72.52;99906.81;2713806;26;19999;-79
2024/04/24 03:36:44;;;;;;;7.85;7.15;;;;;;;1.75;72.60;99911.06;2713190;26;19996;-80
2024/04/24 03:37:57;;;;;;;6.43;5.82;;;;;;;1.74;72.80;99907.63;2726933;26;20002;-80
2024/04/24 03:39:10;;;;;;;8.13;7.30;;;;;;;1.77;72.84;99916.22;2728316;26;20049;-80
2024/04/24 03:40:24;;;;;;;7.43;6.47;;;;;;;1.75;73.03;99903.34;2727313;26;20006;-80
2024/04/24 03:41:37;;;;;;;9.15;7.10;;;;;;;1.77;72.68;99905.94;2727556;26;20086;-81
2024/04/24 03:42:50;;;;;;;9.27;7.55;;;;;;;1.75;72.93;99903.34;2726656;26;20031;-79
2024/04/24 03:44:03;;;;;;;8.52;6.75;;;;;;;1.75;72.88;99909.34;2712911;26;20317;-79
2024/04/24 03:45:17;;;;;;;11.35;7.18;;;;;;;1.77;72.99;99911.09;2725338;26;20068;-79
2024/04/24 03:46:30;;;;;;;7.13;6.53;;;;;;;1.75;73.09;99901.63;2725939;26;20068;-79
2024/04/24 03:47:43;;;;;;;6.25;5.65;;;;;;;1.77;72.88;99903.38;2726051;26;20006;-78
2024/04/24 03:48:57;;;;;;;11.20;6.43;;;;;;;1.76;72.91;99905.09;2725117;26;20072;-79
2024/04/24 03:50:10;;;;;;;6.93;5.63;;;;;;;1.77;72.66;99906.81;2724519;26;20003;-79
2024/04/24 03:51:24;;;;;;;6.90;6.20;;;;;;;1.77;73.12;99900.81;2713607;26;20006;-80
2024/04/24 03:52:37;;;;;;;6.40;5.78;;;;;;;1.78;73.27;99910.25;2724192;26;20007;-79
2024/04/24 03:53:50;;;;;;;8.55;6.57;;;;;;;1.79;73.01;99905.13;2729148;26;20003;-78
2024/04/24 03:55:04;;;;;;;9.38;6.72;;;;;;;1.81;73.40;99897.41;2725818;26;19991;-78
2024/04/24 03:56:17;;;;;;;14.40;8.55;;;;;;;1.82;73.10;99905.16;2724190;26;20010;-79
2024/04/24 03:57:31;;;;;;;6.75;6.00;;;;;;;1.85;72.91;99901.78;2725153;26;19999;-78
2024/04/24 03:58:44;;;;;;;9.40;6.07;;;;;;;1.86;73.05;99900.91;2725792;26;20076;-79
2024/04/24 03:59:57;;;;;;;6.78;6.07;;;;;;;1.87;72.97;99895.81;2724996;26;20010;-79
2024/04/24 04:01:10;;;;;;;9.55;6.20;;;;;;;1.89;72.93;99901.84;2725460;26;19996;-79
2024/04/24 04:02:24;;;;;;;9.63;7.18;;;;;;;1.90;72.74;99898.41;2726061;26;20000;-79
2024/04/24 04:03:37;;;;;;;5.90;5.38;;;;;;;1.91;73.04;99899.28;2726435;26;20023;-78
2024/04/24 04:04:50;;;;;;;5.97;5.45;;;;;;;1.92;72.88;99890.72;2725559;26;20007;-79
2024/04/24 04:06:04;;;;;;;6.22;5.65;;;;;;;1.94;72.70;99901.91;2725959;26;19996;-79
2024/04/24 04:07:17;;;;;;;8.65;6.07;;;;;;;1.93;73.13;99902.75;2726274;26;19999;-78
2024/04/24 04:08:30;;;;;;;8.90;5.65;;;;;;;1.92;73.35;99896.75;2725443;26;19996;-79
2024/04/24 04:09:43;;;;;;;8.45;7.40;;;;;;;1.93;72.76;99897.59;2725973;26;19999;-79
2024/04/24 04:10:57;;;;;;;7.28;6.57;;;;;;;1.94;72.87;99899.34;2725746;26;20076;-78
2024/04/24 04:12:10;;;;;;;9.23;6.65;;;;;;;1.92;72.98;99891.59;2725624;26;20432;-79
2024/04/24 04:13:23;;;;;;;6.63;6.03;;;;;;;1.93;72.90;99895.88;2725142;26;20039;-78
2024/04/24 04:14:36;;;;;;;6.20;5.60;;;;;;;1.94;73.21;99894.19;2725489;26;19996;-79
2024/04/24 04:15:50;;;;;;;9.90;7.13;;;;;;;1.93;73.33;99892.44;2725945;26;19991;-79
2024/04/24 04:17:03;;;;;;;10.02;6.15;;;;;;;1.90;72.96;99892.41;2724627;26;20009;-79
2024/04/24 04:18:16;;;;;;;7.50;6.55;;;;;;;1.88;73.30;99886.38;2725141;26;20000;-79
2024/04/24 04:19:29;;;;;;;8.43;7.40;;;;;;;1.87;73.13;99890.66;2725860;26;20460;-78
2024/04/24 04:20:43;;;;;;;7.50;6.80;;;;;;;1.88;73.27;99881.22;2725278;26;19999;-79
2024/04/24 04:21:56;;;;;;;8.10;7.00;;;;;;;1.89;73.23;99885.56;2711307;26;20000;-79
2024/04/24 04:23:09;;;;;;;8.35;7.25;;;;;;;1.91;73.28;99887.31;2726034;26;20096;-78
2024/04/24 04:24:22;;;;;;;8.18;7.38;;;;;;;1.92;73.17;99891.59;2725463;26;20011;-79
2024/04/24 04:25:36;;;;;;;7.80;6.97;;;;;;;1.92;73.68;99877.88;2724821;26;20011;-78
2024/04/24 04:26:49;;;;;;;9.30;8.13;;;;;;;1.95;73.33;99889.06;2713089;26;20680;-78
2024/04/24 04:28:03;;;;;;;7.32;6.65;;;;;;;1.98;73.11;99885.66;2724938;26;20429;-79
2024/04/24 04:29:16;;;;;;;10.07;7.35;;;;;;;2.02;73.13;99881.44;2725851;26;20041;-79
2024/04/24 04:30:30;;;;;;;15.38;8.52;;;;;;;2.05;73.32;99886.63;2724333;26;20108;-78
2024/04/24 04:31:43;;;;;;;9.65;8.52;;;;;;;2.08;73.50;99884.94;2724651;26;19995;-78
2024/04/24 04:32:56;;;;;;;7.50;6.65;;;;;;;2.13;73.60;99879.88;2724900;26;20047;-79
2024/04/24 04:34:09;;;;;;;7.93;6.97;;;;;;;2.17;73.09;99882.50;2725692;26;19995;-78
2024/04/24 04:35:23;;;;;;;8.32;7.35;;;;;;;2.24;73.23;99888.56;2725691;26;19996;-78
2024/04/24 04:36:36;;;;;;;9.32;8.18;;;;;;;2.30;73.01;99886.09;2725369;26;20348;-79
2024/04/24 04:37:49;;;;;;;7.57;6.90;;;;;;;2.36;72.87;99877.59;2723698;26;20022;-79
2024/04/24 04:39:03;;;;;;;9.40;7.05;;;;;;;2.41;72.91;99878.50;2724902;26;19996;-78
2024/04/24 04:40:17;;;;;;;13.00;8.73;;;;;;;2.48;72.35;99884.56;2723748;26;20003;-78
2024/04/24 04:41:30;;;;;;;8.57;7.72;;;;;;;2.53;72.74;99885.50;2713184;26;20027;-78
2024/04/24 04:42:43;;;;;;;7.22;6.50;;;;;;;2.56;72.01;99875.25;2713323;26;20000;-78
2024/04/24 04:43:56;;;;;;;7.47;6.88;;;;;;;2.60;72.41;99882.16;2725108;26;20076;-80
2024/04/24 04:45:10;;;;;;;6.80;6.10;;;;;;;2.62;72.20;99881.31;2724362;26;20007;-78
2024/04/24 04:46:23;;;;;;;7.95;7.18;;;;;;;2.67;71.98;99881.38;2694883;26;20826;-79
2024/04/24 04:47:36;;;;;;;8.27;7.47;;;;;;;2.72;72.15;99891.72;2707151;26;20000;-78
2024/04/24 04:48:49;;;;;;;10.35;6.75;;;;;;;2.77;71.43;99882.34;2720408;26;20010;-78
2024/04/24 04:50:03;;;;;;;8.95;7.82;;;;;;;2.80;71.82;99890.09;2724965;26;20075;-77
2024/04/24 04:51:16;;;;;;;9.18;8.07;;;;;;;2.85;71.64;99898.75;2725719;26;20402;-79
2024/04/24 04:52:30;;;;;;;15.13;8.48;;;;;;;2.90;71.45;99902.22;2725100;26;19991;-78
2024/04/24 04:53:43;;;;;;;7.68;6.88;;;;;;;2.96;71.39;99898.84;2725426;26;19999;-78
2024/04/24 04:54:56;;;;;;;7.57;6.75;;;;;;;3.03;71.52;99903.22;2723401;26;20079;-79
2024/04/24 04:56:09;;;;;;;9.50;8.50;;;;;;;3.09;71.21;99903.28;2724144;26;19992;-78
2024/04/24 04:57:23;;;;;;;10.23;8.93;;;;;;;3.16;70.81;99911.94;2706475;26;20004;-78
2024/04/24 04:58:36;;;;;;;8.77;7.88;;;;;;;3.23;70.91;99916.31;2706979;26;19996;-78
2024/04/24 04:59:50;;;;;;;7.32;6.43;;;;;;;3.29;70.99;99921.50;2720550;26;19999;-78
2024/04/24 05:01:03;;;;;;;7.07;6.43;;;;;;;3.33;71.29;99907.81;2724219;26;19992;-78
2024/04/24 05:02:16;;;;;;;7.63;6.88;;;;;;;3.38;71.17;99903.56;2724320;26;20069;-79
2024/04/24 05:03:30;;;;;;;10.10;8.25;;;;;;;3.43;71.66;99901.00;2695117;26;20044;-78
2024/04/24 05:04:43;;;;;;;9.43;8.63;;;;;;;3.45;71.46;99889.84;2693767;26;20007;-77
2024/04/24 05:05:56;;;;;;;10.05;9.07;;;;;;;3.49;71.07;99894.19;2709323;26;20004;-81
2024/04/24 05:07:10;;;;;;;9.18;8.27;;;;;;;3.55;71.35;99902.81;2712642;26;19996;-78
2024/04/24 05:08:23;;;;;;;9.07;8.18;;;;;;;3.59;71.10;99896.81;2724267;26;20456;-79
2024/04/24 05:09:36;;;;;;;12.18;7.75;;;;;;;3.63;71.54;99896.84;2724948;26;20027;-78
2024/04/24 05:10:50;;;;;;;14.10;8.35;;;;;;;3.65;71.43;99886.56;2724179;26;20449;-78
2024/04/24 05:12:03;;;;;;;12.38;8.60;;;;;;;3.68;71.81;99895.16;2724297;26;20007;-79
2024/04/24 05:13:17;;;;;;;7.70;6.93;;;;;;;3.71;71.63;99892.59;2724959;26;20106;-78
2024/04/24 05:14:30;;;;;;;8.65;7.78;;;;;;;3.75;71.79;99887.50;2724904;26;20000;-78
2024/04/24 05:15:43;;;;;;;11.15;10.07;;;;;;;3.76;71.99;99890.06;2725033;26;19991;-78
2024/04/24 05:16:56;;;;;;;8.82;7.00;;;;;;;3.78;72.09;99890.94;2724527;26;19996;-78
2024/04/24 05:18:10;;;;;;;8.93;8.02;;;;;;;3.80;71.82;99883.22;2725084;26;20023;-77
2024/04/24 05:19:24;;;;;;;9.30;7.82;;;;;;;3.81;71.59;99885.78;2724015;26;20367;-80
2024/04/24 05:20:37;;;;;;;9.88;8.88;;;;;;;3.82;71.69;99881.50;2723964;26;20023;-78
2024/04/24 05:21:50;;;;;;;8.00;7.25;;;;;;;3.83;71.33;99886.69;2725065;26;19996;-78
2024/04/24 05:23:05;;;;;;;9.38;7.45;;;;;;;3.82;71.09;99887.53;2723527;26;20692;-78
2024/04/24 05:24:18;;;;;;;14.85;9.00;;;;;;;3.82;71.08;99887.53;2712299;26;20015;-78
2024/04/24 05:25:36;;;;;;;13.55;7.85;;;;;;;3.83;71.41;99884.09;2712793;26;20359;-79
2024/04/24 05:29:53;;;;;;;8.45;7.47;;;;;;;3.91;70.87;99882.41;2724753;26;20083;-80
2024/04/24 05:31:06;;;;;;;8.85;7.28;;;;;;;3.93;71.24;99885.03;2723345;26;20062;-77
2024/04/24 05:32:20;;;;;;;7.63;6.90;;;;;;;3.96;70.83;99891.91;2724350;26;19992;-79
2024/04/24 05:33:33;;;;;;;7.68;6.85;;;;;;;4.01;70.76;99882.50;2725257;26;19999;-78
2024/04/24 05:34:46;;;;;;;8.43;7.47;;;;;;;4.02;70.80;99886.78;2724770;26;20000;-79
2024/04/24 05:36:01;;;;;;;7.10;5.53;;;;;;;4.03;70.41;99885.94;2725163;26;19996;-79
2024/04/24 05:37:15;;;;;;;8.35;7.55;;;;;;;4.06;70.25;99889.41;2725118;26;19995;-78
2024/04/24 05:38:28;;;;;;;13.18;10.82;;;;;;;4.08;70.54;99890.28;2725419;26;20076;-78
2024/04/24 05:39:41;;;;;;;9.85;7.78;;;;;;;4.11;70.27;99890.28;2724788;26;19995;-79
2024/04/24 05:40:55;;;;;;;9.52;7.60;;;;;;;4.16;70.20;99890.31;2723655;26;20004;-78
2024/04/24 05:42:08;;;;;;;9.05;7.55;;;;;;;4.20;70.08;99883.44;2724075;26;19996;-78
2024/04/24 05:43:21;;;;;;;7.85;7.05;;;;;;;4.20;70.46;99894.63;2723785;26;20388;-78
2024/04/24 05:44:34;;;;;;;17.73;8.48;;;;;;;4.22;70.42;99894.66;2711938;26;19995;-77
2024/04/24 05:45:49;;;;;;;8.48;7.13;;;;;;;4.21;70.61;99893.78;2724014;26;20130;-79
2024/04/24 05:47:03;;;;;;;13.43;9.07;;;;;;;4.20;70.62;99893.78;2724780;26;20002;-78
2024/04/24 05:48:16;;;;;;;9.68;8.32;;;;;;;4.19;70.57;99889.47;2722794;26;20448;-79
2024/04/24 05:49:29;;;;;;;9.18;8.35;;;;;;;4.18;71.28;99879.97;2723537;26;19999;-77
2024/04/24 05:50:42;;;;;;;12.02;9.75;;;;;;;4.14;71.13;99884.28;2725232;26;20006;-79
2024/04/24 05:51:56;;;;;;;9.48;8.57;;;;;;;4.12;71.53;99875.66;2724899;26;19995;-78
2024/04/24 05:53:09;;;;;;;12.63;9.18;;;;;;;4.10;71.61;99878.22;2724803;26;20501;-77